Aviation Digital Data Service (ADDS)

Output produced by METARs form (0900 UTC 19 November 2018)
found at http://www.aviationweather.gov/metar/data/
 
KSTC 190853Z AUTO 01004KT 6SM -SN BR FEW050 BKN095 M05/M07 A2999 RMK AO2 SNE0756B26 SLP179 P0000 60000 T10501067 51010
KSTC 190520Z 1906/2006 01006KT 6SM -SN OVC035 
     TEMPO 1907/1910 2SM -SN OVC025 
     FM191100 35007G13KT P6SM BKN015 
     FM191900 34011G18KT P6SM SCT025 
     FM192300 34008KT P6SM SKC
       
KBRD 190853Z AUTO 02006KT 1 1/2SM -SN BR FEW007 OVC036 M06/M08 A3000 RMK AO2 SLP179 P0000 60001 T10561078 51011
KBRD 190838Z AUTO 01005KT 1 1/4SM -SN OVC032 M05/M08 A3000 RMK AO2 P0000 T10501078
KBRD 190823Z AUTO 02006KT 1 1/2SM -SN OVC033 M05/M08 A3000 RMK AO2 P0000 T10501078
KBRD 190811Z AUTO 02007KT 1 1/4SM -SN OVC031 M05/M08 A2999 RMK AO2 P0000 T10501078
KBRD 190710Z 1907/2006 02005KT 3SM -SN BKN025 OVC040 
     TEMPO 1907/1909 3/4SM -SN 
     FM190900 02006KT 3SM -SN OVC015 
     FM191200 01008G15KT P6SM SCT020 BKN030 
     FM191600 01010KT P6SM FEW030 SCT060 
     FM200400 00000KT P6SM SKC